Hewins, Kansas
Current Conditions -  °F | °C
As of 7:35 PM on Wednesday 26 Nov 2014 (Local Time) from KIDP Reporting Station
Clear Clear  
Wind Chill: 26°   Ceiling: Unl
Heat Index: 36°   Visibility: 10mi
Dew Point: 25°   Wind: 15mph
Humidity: 65%   Direction: 320°NW
Pressure: 30.33"   Gusts: NA
Location:  37.1672°N, 96.399°W
Report Text: KIDP 270135Z AUTO 32013KT 10SM CLR 02/M04 A3033 RMK AO2
Loading
Personal Weather Stations






























Interactive Weather Map New forecast layout! Learn more

10-Day Weather Forecast

Advertisements
Track Severe Weather on mobile